Time;durP1;ratioP1;P1;durP2;ratioP2;P2;SDS_P1;SDS_P2;PMS_P1;PMS_P2;Temp;Humidity;BMP_temperature;BMP_pressure;BME280_temperature;BME280_humidity;BME280_pressure;Samples;Min_cycle;Max_cycle;Signal;HPM_P1;HPM_P2
2022/08/16 00:01:19;;;;;;;;;;;;;;;19.74;100.00;-25622.84;5077162;28;19927;-77
2022/08/16 00:03:51;;;;;;;;;;;;;;;19.67;100.00;-25620.69;5073524;28;19923;-80
2022/08/16 00:06:16;;;;;;;;;;;;;;;19.66;100.00;-25620.41;5071375;28;20126;-78
2022/08/16 00:08:42;;;;;;;;;;;;;;;19.64;100.00;-25619.81;5075952;28;20422;-77
2022/08/16 00:11:09;;;;;;;;;;;;;;;19.64;100.00;-25619.97;5092479;28;20284;-77
2022/08/16 00:13:34;;;;;;;;;;;;;;;19.69;100.00;-25621.25;5090611;28;19956;-79
2022/08/16 00:15:59;;;;;;;;;;;;;;;19.66;100.00;-25620.53;5074533;28;19963;-79
2022/08/16 00:18:25;;;;;;;;;;;;;;;19.63;100.00;-25619.69;5084800;28;19981;-78
2022/08/16 00:20:50;;;;;;;;;;;;;;;19.58;100.00;-25618.22;5076885;28;19985;-80
2022/08/16 00:23:16;;;;;;;;;;;;;;;19.51;100.00;-25616.22;5072208;28;20423;-80
2022/08/16 00:25:42;;;;;;;;;;;;;;;19.48;100.00;-25615.50;5109294;28;19912;-79
2022/08/16 00:28:07;;;;;;;;;;;;;;;19.46;100.00;-25614.78;5093434;28;20287;-82
2022/08/16 00:30:32;;;;;;;;;;;;;;;19.33;100.00;-25611.31;5080980;28;19978;-80
2022/08/16 00:33:03;;;;;;;;;;;;;;;19.34;100.00;-25611.44;5092508;28;19923;-80
2022/08/16 00:35:30;;;;;;;;;;;;;;;19.41;100.00;-25613.31;5091042;28;19955;-80
2022/08/16 00:37:56;;;;;;;;;;;;;;;19.37;100.00;-25612.31;5076702;28;20731;-79
2022/08/16 00:40:25;;;;;;;;;;;;;;;19.42;100.00;-25613.63;5091849;28;19931;-80
2022/08/16 00:42:59;;;;;;;;;;;;;;;19.37;100.00;-25612.47;5077889;28;19920;-79
2022/08/16 00:45:51;;;;;;;;;;;;;;;19.39;100.00;-25612.91;5071978;28;19984;-79
2022/08/16 00:48:17;;;;;;;;;;;;;;;19.26;100.00;-25609.28;5060032;28;20039;-79
2022/08/16 00:50:42;;;;;;;;;;;;;;;19.29;100.00;-25610.16;5071955;28;19924;-80
2022/08/16 00:53:12;;;;;;;;;;;;;;;19.25;100.00;-25609.00;5071634;28;19981;-80
2022/08/16 00:55:38;;;;;;;;;;;;;;;19.22;100.00;-25607.97;5065880;28;20008;-79
2022/08/16 00:58:06;;;;;;;;;;;;;;;19.28;100.00;-25609.72;5079288;28;19928;-80
2022/08/16 01:00:32;;;;;;;;;;;;;;;19.32;100.00;-25610.88;5082061;28;19924;-80
2022/08/16 01:02:59;;;;;;;;;;;;;;;19.35;100.00;-25611.75;5109586;28;19923;-79
2022/08/16 01:05:26;;;;;;;;;;;;;;;19.35;100.00;-25611.75;5093787;28;19916;-81
2022/08/16 01:07:52;;;;;;;;;;;;;;;19.35;100.00;-25611.75;5096567;28;19928;-80
2022/08/16 01:10:17;;;;;;;;;;;;;;;19.36;100.00;-25612.03;5096247;28;19912;-79
2022/08/16 01:12:43;;;;;;;;;;;;;;;19.34;100.00;-25611.59;5095084;28;19966;-79
2022/08/16 01:15:09;;;;;;;;;;;;;;;19.31;100.00;-25610.72;5093174;28;19920;-78
2022/08/16 01:17:34;;;;;;;;;;;;;;;19.26;100.00;-25609.28;5086955;28;20421;-79
2022/08/16 01:20:01;;;;;;;;;;;;;;;19.31;100.00;-25610.59;5090240;28;19917;-78
2022/08/16 01:22:38;;;;;;;;;;;;;;;19.27;100.00;-25609.56;5080969;28;19953;-78
2022/08/16 01:25:26;;;;;;;;;;;;;;;19.26;100.00;-25609.13;5082471;28;19970;-78
2022/08/16 01:27:53;;;;;;;;;;;;;;;19.26;100.00;-25609.28;5069845;28;19964;-77
2022/08/16 01:30:30;;;;;;;;;;;;;;;19.24;100.00;-25608.72;5083058;28;19927;-77
2022/08/16 01:32:56;;;;;;;;;;;;;;;19.18;100.00;-25606.97;5091667;28;19923;-77
2022/08/16 01:35:25;;;;;;;;;;;;;;;19.02;100.00;-25602.63;5094781;28;19919;-77
2022/08/16 01:37:52;;;;;;;;;;;;;;;19.06;100.00;-25603.50;5074653;28;19924;-77
2022/08/16 01:40:19;;;;;;;;;;;;;;;19.06;100.00;-25603.66;5074248;28;20368;-78
2022/08/16 01:42:47;;;;;;;;;;;;;;;19.04;100.00;-25602.94;5074704;28;19955;-79
2022/08/16 01:45:12;;;;;;;;;;;;;;;19.07;100.00;-25603.78;5074732;28;19924;-75
2022/08/16 01:47:38;;;;;;;;;;;;;;;19.02;100.00;-25602.50;5074765;28;19921;-77
2022/08/16 01:50:05;;;;;;;;;;;;;;;18.96;100.00;-25600.75;5080501;28;19916;-79
2022/08/16 01:52:30;;;;;;;;;;;;;;;18.97;100.00;-25601.19;5095339;28;19920;-77
2022/08/16 01:54:56;;;;;;;;;;;;;;;18.91;100.00;-25599.47;5094231;28;19920;-79
2022/08/16 01:57:22;;;;;;;;;;;;;;;18.86;100.00;-25598.00;5093183;28;20403;-79
2022/08/16 01:59:47;;;;;;;;;;;;;;;18.86;100.00;-25598.00;5087049;28;19916;-79
2022/08/16 02:02:13;;;;;;;;;;;;;;;18.80;100.00;-25596.28;5095016;28;19982;-79
2022/08/16 02:04:39;;;;;;;;;;;;;;;18.79;100.00;-25596.00;5095312;28;19923;-78
2022/08/16 02:07:07;;;;;;;;;;;;;;;18.73;100.00;-25594.41;5054394;28;19975;-80
2022/08/16 02:09:34;;;;;;;;;;;;;;;18.74;100.00;-25594.53;5073903;28;19920;-78
2022/08/16 02:12:01;;;;;;;;;;;;;;;18.77;100.00;-25595.41;5073974;28;19917;-78
2022/08/16 02:14:35;;;;;;;;;;;;;;;18.77;100.00;-25595.41;5089943;28;19985;-78
2022/08/16 02:17:01;;;;;;;;;;;;;;;18.83;100.00;-25597.28;5094526;28;19928;-78
2022/08/16 02:19:28;;;;;;;;;;;;;;;18.84;100.00;-25597.44;5079494;28;20015;-80
2022/08/16 02:21:54;;;;;;;;;;;;;;;18.84;100.00;-25597.44;5074300;28;19920;-76
2022/08/16 02:24:24;;;;;;;;;;;;;;;18.86;100.00;-25598.00;5089218;28;19920;-78
2022/08/16 02:26:50;;;;;;;;;;;;;;;18.84;100.00;-25597.56;5094785;28;19985;-79
2022/08/16 02:29:17;;;;;;;;;;;;;;;18.81;100.00;-25596.72;5093809;28;20365;-79
2022/08/16 02:31:43;;;;;;;;;;;;;;;18.74;100.00;-25594.53;5094455;28;19975;-76
2022/08/16 02:34:08;;;;;;;;;;;;;;;18.65;100.00;-25592.22;5091424;28;19916;-76
2022/08/16 02:36:34;;;;;;;;;;;;;;;18.69;100.00;-25593.25;5074307;28;20387;-75
2022/08/16 02:38:59;;;;;;;;;;;;;;;18.64;100.00;-25591.94;5091317;28;20449;-76
2022/08/16 02:41:25;;;;;;;;;;;;;;;18.65;100.00;-25592.22;5073419;28;20011;-77
2022/08/16 02:43:50;;;;;;;;;;;;;;;18.65;100.00;-25592.22;5073409;28;19921;-75
2022/08/16 02:46:15;;;;;;;;;;;;;;;18.71;100.00;-25593.81;5083304;28;19924;-75
2022/08/16 02:48:41;;;;;;;;;;;;;;;18.72;100.00;-25594.09;5087005;28;19980;-75
2022/08/16 02:51:07;;;;;;;;;;;;;;;18.65;100.00;-25592.09;5078107;28;19927;-76
2022/08/16 02:53:34;;;;;;;;;;;;;;;18.70;100.00;-25593.38;5073228;28;20022;-75
2022/08/16 02:56:00;;;;;;;;;;;;;;;18.66;100.00;-25592.50;5076214;28;19916;-75
2022/08/16 02:58:25;;;;;;;;;;;;;;;18.69;100.00;-25593.09;5092778;28;19916;-75
2022/08/16 03:00:52;;;;;;;;;;;;;;;18.67;100.00;-25592.66;5084155;28;19921;-79
2022/08/16 03:03:20;;;;;;;;;;;;;;;18.66;100.00;-25592.50;5069726;28;19924;-78
2022/08/16 03:05:46;;;;;;;;;;;;;;;18.64;100.00;-25591.78;5093310;28;19935;-79
2022/08/16 03:08:11;;;;;;;;;;;;;;;18.58;100.00;-25590.06;5093908;28;19916;-80
2022/08/16 03:10:37;;;;;;;;;;;;;;;18.53;100.00;-25588.75;5079939;28;19977;-79
2022/08/16 03:13:06;;;;;;;;;;;;;;;18.51;100.00;-25588.03;5083893;28;19926;-78
2022/08/16 03:15:32;;;;;;;;;;;;;;;18.53;100.00;-25588.63;5079602;28;19920;-80
2022/08/16 03:17:58;;;;;;;;;;;;;;;18.55;100.00;-25589.34;5092606;28;19923;-80
2022/08/16 03:20:23;;;;;;;;;;;;;;;18.53;100.00;-25588.75;5093104;28;20011;-79
2022/08/16 03:22:58;;;;;;;;;;;;;;;18.52;100.00;-25588.47;5084128;28;20019;-80
2022/08/16 03:25:23;;;;;;;;;;;;;;;18.49;100.00;-25587.59;5081342;28;19920;-80
2022/08/16 03:27:50;;;;;;;;;;;;;;;18.47;100.00;-25587.16;5093974;28;19969;-79
2022/08/16 03:30:20;;;;;;;;;;;;;;;18.47;100.00;-25587.16;5092392;28;20381;-82
2022/08/16 03:32:48;;;;;;;;;;;;;;;18.47;100.00;-25587.03;5093666;28;19919;-82
2022/08/16 03:35:14;;;;;;;;;;;;;;;18.51;100.00;-25588.19;5093094;28;19920;-79
2022/08/16 03:37:42;;;;;;;;;;;;;;;18.51;100.00;-25588.19;5093187;28;19920;-82
2022/08/16 03:40:08;;;;;;;;;;;;;;;18.51;100.00;-25588.19;5087248;28;20001;-82
2022/08/16 03:42:45;;;;;;;;;;;;;;;18.55;100.00;-25589.34;5073334;28;19920;-81
2022/08/16 03:45:10;;;;;;;;;;;;;;;18.56;100.00;-25589.47;5091862;28;19970;-81
2022/08/16 03:47:35;;;;;;;;;;;;;;;18.55;100.00;-25589.34;5076910;28;19924;-81
2022/08/16 03:50:01;;;;;;;;;;;;;;;18.56;100.00;-25589.47;5089627;28;20007;-81
2022/08/16 03:52:31;;;;;;;;;;;;;;;18.52;100.00;-25588.47;5077385;28;19977;-81
2022/08/16 03:54:56;;;;;;;;;;;;;;;18.55;100.00;-25589.34;5085169;28;19930;-82
2022/08/16 03:57:21;;;;;;;;;;;;;;;18.54;100.00;-25589.03;5091462;28;19920;-78
2022/08/16 03:59:47;;;;;;;;;;;;;;;18.50;100.00;-25587.88;5070460;28;19928;-78
2022/08/16 04:02:12;;;;;;;;;;;;;;;18.50;100.00;-25587.88;5088220;28;20156;-79
2022/08/16 04:04:40;;;;;;;;;;;;;;;18.50;100.00;-25587.88;5087528;28;19916;-75
2022/08/16 04:07:06;;;;;;;;;;;;;;;18.50;100.00;-25587.88;5072686;28;19973;-83
2022/08/16 04:09:32;;;;;;;;;;;;;;;18.52;100.00;-25588.47;5084069;28;19924;-81
2022/08/16 04:11:58;;;;;;;;;;;;;;;18.52;100.00;-25588.47;5075384;28;19931;-76
2022/08/16 04:14:25;;;;;;;;;;;;;;;18.51;100.00;-25588.19;5085486;28;20281;-75
2022/08/16 04:16:50;;;;;;;;;;;;;;;18.51;100.00;-25588.03;5072420;28;19917;-76
2022/08/16 04:19:16;;;;;;;;;;;;;;;18.54;100.00;-25589.03;5070907;28;19925;-76
2022/08/16 04:21:41;;;;;;;;;;;;;;;18.48;100.00;-25587.44;5071466;28;19916;-74
2022/08/16 04:24:06;;;;;;;;;;;;;;;18.48;100.00;-25587.31;5071349;28;19947;-76
2022/08/16 04:26:31;;;;;;;;;;;;;;;18.42;100.00;-25585.72;5071270;28;19912;-76
2022/08/16 04:28:58;;;;;;;;;;;;;;;18.41;100.00;-25585.44;5088440;28;19921;-77
2022/08/16 04:31:23;;;;;;;;;;;;;;;18.41;100.00;-25585.44;5070875;28;19939;-75
2022/08/16 04:33:48;;;;;;;;;;;;;;;18.37;100.00;-25584.28;5070185;28;20651;-75
2022/08/16 04:36:14;;;;;;;;;;;;;;;18.41;100.00;-25585.44;5089994;28;19924;-75
2022/08/16 04:38:39;;;;;;;;;;;;;;;18.43;100.00;-25585.88;5091124;28;20296;-81
2022/08/16 04:41:04;;;;;;;;;;;;;;;18.46;100.00;-25586.72;5060144;28;20024;-76
2022/08/16 04:43:30;;;;;;;;;;;;;;;18.50;100.00;-25587.88;5071154;28;19917;-80
2022/08/16 04:45:55;;;;;;;;;;;;;;;18.49;100.00;-25587.59;5071415;28;19917;-79
2022/08/16 04:48:20;;;;;;;;;;;;;;;18.47;100.00;-25587.03;5071265;28;19924;-78
2022/08/16 04:50:46;;;;;;;;;;;;;;;18.52;100.00;-25588.31;5071664;28;19921;-81
2022/08/16 04:53:11;;;;;;;;;;;;;;;18.53;100.00;-25588.75;5074974;28;19916;-78
2022/08/16 04:55:37;;;;;;;;;;;;;;;18.72;100.00;-25593.97;5088162;28;19927;-79
2022/08/16 04:58:02;;;;;;;;;;;;;;;18.84;100.00;-25597.44;5095762;28;19923;-79
2022/08/16 05:00:34;;;;;;;;;;;;;;;18.98;100.00;-25601.47;5095654;28;19916;-81
2022/08/16 05:03:07;;;;;;;;;;;;;;;19.05;100.00;-25603.22;5095104;28;19961;-79
2022/08/16 05:05:33;;;;;;;;;;;;;;;19.07;100.00;-25603.78;5092933;28;20367;-83
2022/08/16 05:07:59;;;;;;;;;;;;;;;19.11;100.00;-25605.09;5096693;28;20011;-84
2022/08/16 05:10:24;;;;;;;;;;;;;;;19.30;100.00;-25610.44;5095480;28;19966;-79
2022/08/16 05:12:54;;;;;;;;;;;;;;;19.55;100.00;-25617.50;5095543;28;19923;-82
2022/08/16 05:15:20;;;;;;;;;;;;;;;19.74;100.00;-25622.72;5094804;28;20012;-82
2022/08/16 05:17:45;;;;;;;;;;;;;;;20.07;100.00;-25631.94;5095964;28;20329;-80
2022/08/16 05:20:10;;;;;;;;;;;;;;;20.29;100.00;-25638.16;5094776;28;19927;-82
2022/08/16 05:22:37;;;;;;;;;;;;;;;20.21;100.00;-25635.97;5095143;28;19963;-82
2022/08/16 05:25:03;;;;;;;;;;;;;;;20.24;100.00;-25636.69;5095541;28;20094;-83
2022/08/16 05:27:28;;;;;;;;;;;;;;;20.61;100.00;-25647.06;5095695;28;19916;-80
2022/08/16 05:29:54;;;;;;;;;;;;;;;20.67;100.00;-25648.66;5082336;28;19920;-81
2022/08/16 05:32:27;;;;;;;;;;;;;;;20.83;100.00;-25653.13;5074693;28;19924;-79
2022/08/16 05:34:54;;;;;;;;;;;;;;;20.75;100.00;-25650.97;5088525;28;20010;-81
2022/08/16 05:37:22;;;;;;;;;;;;;;;20.70;100.00;-25649.69;5091576;28;19972;-78
2022/08/16 05:39:47;;;;;;;;;;;;;;;20.97;100.00;-25657.31;5074824;28;20446;-82
2022/08/16 05:42:13;;;;;;;;;;;;;;;21.45;100.00;-23676.19;5085503;28;19921;-83
2022/08/16 05:44:38;;;;;;;;;;;;;;;22.17;100.00;-17703.44;5074513;28;19916;-79
2022/08/16 05:47:04;;;;;;;;;;;;;;;22.19;100.00;-9367.56;5074347;28;19916;-81
2022/08/16 05:49:30;;;;;;;;;;;;;;;22.22;100.00;-5025.44;5075268;28;20019;-80
2022/08/16 05:51:55;;;;;;;;;;;;;;;22.83;100.00;2008.69;5075432;28;20026;-82
2022/08/16 05:54:21;;;;;;;;;;;;;;;23.70;100.00;18501.03;5074126;28;20416;-79
2022/08/16 05:56:47;;;;;;;;;;;;;;;24.10;100.00;52727.88;5074831;28;19934;-81
2022/08/16 05:59:16;;;;;;;;;;;;;;;24.73;100.00;90423.13;5073897;28;19928;-82
2022/08/16 06:01:44;;;;;;;;;;;;;;;24.87;100.00;148968.41;5074593;28;19921;-78
2022/08/16 06:04:13;;;;;;;;;;;;;;;24.68;100.00;148920.91;5105516;28;19927;-76
2022/08/16 06:06:39;;;;;;;;;;;;;;;24.07;100.00;148768.00;5074009;28;19939;-78
2022/08/16 06:09:04;;;;;;;;;;;;;;;23.75;100.00;148687.06;5074427;28;20376;-80
2022/08/16 06:11:30;;;;;;;;;;;;;;;23.52;100.00;148630.53;5075144;28;19923;-77
2022/08/16 06:13:55;;;;;;;;;;;;;;;23.53;100.00;148633.13;5073852;28;19916;-78
2022/08/16 06:16:21;;;;;;;;;;;;;;;23.21;100.00;148552.25;5076029;28;19999;-75
2022/08/16 06:18:46;;;;;;;;;;;;;;;22.82;100.00;148455.94;5083543;28;19931;-79
2022/08/16 06:21:12;;;;;;;;;;;;;;;22.84;100.00;148461.13;5085285;28;19955;-78
2022/08/16 06:23:38;;;;;;;;;;;;;;;22.48;100.00;148370.00;5078795;28;19916;-77
2022/08/16 06:26:04;;;;;;;;;;;;;;;22.43;100.00;134488.41;5074592;28;19924;-79
2022/08/16 06:28:29;;;;;;;;;;;;;;;22.23;100.00;116829.34;5077277;28;19923;-78
2022/08/16 06:30:56;;;;;;;;;;;;;;;22.03;100.00;99599.19;5078279;28;19916;-77
2022/08/16 06:33:25;;;;;;;;;;;;;;;21.83;100.00;79038.97;5075868;28;19920;-79
2022/08/16 06:35:51;;;;;;;;;;;;;;;21.71;100.00;64718.22;5088859;28;19920;-80
2022/08/16 06:38:17;;;;;;;;;;;;;;;21.81;100.00;51153.91;5088263;28;19921;-77
2022/08/16 06:40:42;;;;;;;;;;;;;;;22.05;100.00;50159.63;5087516;28;20547;-75
2022/08/16 06:43:08;;;;;;;;;;;;;;;22.18;100.00;55597.81;5075738;28;20408;-77
2022/08/16 06:45:36;;;;;;;;;;;;;;;22.90;100.00;59070.00;5092007;28;19923;-78
2022/08/16 06:48:02;;;;;;;;;;;;;;;23.57;100.00;106746.25;5092149;28;19954;-77
2022/08/16 06:50:28;;;;;;;;;;;;;;;23.72;100.00;148679.34;5092899;28;19916;-78
2022/08/16 06:52:56;;;;;;;;;;;;;;;23.52;100.00;148630.53;5092627;28;20007;-77
2022/08/16 06:55:21;;;;;;;;;;;;;;;23.40;100.00;148601.06;5092431;28;20450;-78
2022/08/16 06:57:46;;;;;;;;;;;;;;;23.89;100.00;148723.06;5092534;28;19964;-77
2022/08/16 07:00:14;;;;;;;;;;;;;;;23.96;100.00;148739.78;5092765;28;20391;-78
2022/08/16 07:02:40;;;;;;;;;;;;;;;24.16;100.00;148789.81;5091221;28;19978;-80
2022/08/16 07:05:06;;;;;;;;;;;;;;;24.34;100.00;148836.06;5093243;28;19923;-77
2022/08/16 07:07:31;;;;;;;;;;;;;;;23.96;100.00;148739.78;5091870;28;19943;-76
2022/08/16 07:09:56;;;;;;;;;;;;;;;24.64;100.00;148909.34;5092511;28;20360;-76
2022/08/16 07:12:29;;;;;;;;;;;;;;;25.15;100.00;149037.81;5092892;28;19927;-79
2022/08/16 07:14:55;;;;;;;;;;;;;;;25.75;100.00;149187.00;5092158;28;19943;-77
2022/08/16 07:17:21;;;;;;;;;;;;;;;26.46;100.00;149364.47;5092191;28;19923;-80
2022/08/16 07:19:47;;;;;;;;;;;;;;;26.63;100.00;149408.22;5092212;28;19920;-78
2022/08/16 07:22:13;;;;;;;;;;;;;;;26.46;100.00;149365.78;5092129;28;19923;-75
2022/08/16 07:24:38;;;;;;;;;;;;;;;26.85;100.00;149463.59;5093575;28;19916;-74
2022/08/16 07:27:04;;;;;;;;;;;;;;;27.15;100.00;149536.94;5091977;28;19916;-77
2022/08/16 07:29:29;;;;;;;;;;;;;;;27.93;100.00;149733.84;5090668;28;19920;-74
2022/08/16 07:31:55;;;;;;;;;;;;;;;27.96;100.00;149739.09;5093004;28;19916;-79
2022/08/16 07:34:20;;;;;;;;;;;;;;;27.80;100.00;149700.41;5091213;28;19943;-80
2022/08/16 07:36:45;;;;;;;;;;;;;;;27.72;100.00;149681.13;5090944;28;20292;-79
2022/08/16 07:39:11;;;;;;;;;;;;;;;27.75;100.00;149687.56;5091619;28;19920;-77
2022/08/16 07:41:37;;;;;;;;;;;;;;;28.18;100.00;149794.44;5091586;28;19997;-78
2022/08/16 07:44:04;;;;;;;;;;;;;;;27.82;100.00;149704.28;5091224;28;20457;-79
2022/08/16 07:46:30;;;;;;;;;;;;;;;27.64;100.00;149660.53;5093119;28;19916;-78
2022/08/16 07:48:55;;;;;;;;;;;;;;;27.72;100.00;149681.13;5091290;28;20015;-79
2022/08/16 07:51:21;;;;;;;;;;;;;;;28.27;100.00;149818.88;5091581;28;19922;-77
2022/08/16 07:53:52;;;;;;;;;;;;;;;28.10;100.00;149776.41;5092829;28;20326;-77
2022/08/16 07:56:18;;;;;;;;;;;;;;;27.57;100.00;149643.75;5091409;28;19916;-79
2022/08/16 07:58:43;;;;;;;;;;;;;;;27.58;100.00;149645.09;5091145;28;19923;-76
2022/08/16 08:01:08;;;;;;;;;;;;;;;27.86;100.00;149714.53;5090596;28;19916;-77
2022/08/16 08:03:34;;;;;;;;;;;;;;;27.27;100.00;149566.50;5092289;28;19916;-77
2022/08/16 08:06:00;;;;;;;;;;;;;;;27.79;100.00;149696.56;5091659;28;19916;-76
2022/08/16 08:08:25;;;;;;;;;;;;;;;28.26;100.00;149816.34;5091185;28;20311;-76
2022/08/16 08:10:50;;;;;;;;;;;;;;;28.32;100.00;149829.22;5090599;28;19923;-77
2022/08/16 08:13:17;;;;;;;;;;;;;;;27.86;100.00;149715.88;5091858;28;20384;-78
2022/08/16 08:15:44;;;;;;;;;;;;;;;28.71;100.00;149927.13;5090010;28;19916;-75
2022/08/16 08:18:09;;;;;;;;;;;;;;;28.47;100.00;149867.84;5090164;28;19916;-79
2022/08/16 08:20:34;;;;;;;;;;;;;;;28.60;100.00;149900.06;5091273;28;20288;-76
2022/08/16 08:23:01;;;;;;;;;;;;;;;29.20;100.00;150049.56;5090737;28;19923;-77
2022/08/16 08:25:26;;;;;;;;;;;;;;;29.47;100.00;150119.09;5090369;28;19955;-77
2022/08/16 08:27:52;;;;;;;;;;;;;;;28.47;100.00;149869.13;5091895;28;19954;-76
2022/08/16 08:30:17;;;;;;;;;;;;;;;29.37;100.00;150093.34;5090441;28;19962;-77
2022/08/16 08:32:43;;;;;;;;;;;;;;;29.29;100.00;150074.03;5089876;28;19916;-76
2022/08/16 08:35:10;;;;;;;;;;;;;;;28.52;100.00;149880.72;5090653;28;19924;-76
2022/08/16 08:37:36;;;;;;;;;;;;;;;28.89;100.00;149973.50;5092099;28;20329;-78
2022/08/16 08:40:03;;;;;;;;;;;;;;;29.22;100.00;150055.97;5090011;28;19920;-78
2022/08/16 08:42:30;;;;;;;;;;;;;;;28.73;100.00;149932.25;5090950;28;19916;-76
2022/08/16 08:44:56;;;;;;;;;;;;;;;29.23;100.00;150058.56;5090322;28;19916;-78
2022/08/16 08:47:22;;;;;;;;;;;;;;;28.89;100.00;149972.22;5091087;28;19927;-80
2022/08/16 08:49:47;;;;;;;;;;;;;;;29.04;100.00;150010.88;5092778;28;20042;-80
2022/08/16 08:52:13;;;;;;;;;;;;;;;28.74;100.00;149934.84;5091807;28;20039;-81
2022/08/16 08:54:38;;;;;;;;;;;;;;;28.72;100.00;149929.72;5091584;28;19917;-80
2022/08/16 08:57:04;;;;;;;;;;;;;;;28.29;100.00;149822.75;5091776;28;20350;-80
2022/08/16 08:59:30;;;;;;;;;;;;;;;27.93;100.00;149732.59;5091928;28;20333;-80
2022/08/16 09:01:55;;;;;;;;;;;;;;;27.77;100.00;149692.69;5091495;28;20018;-79
2022/08/16 09:04:21;;;;;;;;;;;;;;;27.63;100.00;149656.66;5091918;28;19916;-81
2022/08/16 09:06:46;;;;;;;;;;;;;;;27.96;100.00;149740.38;5092216;28;19926;-80
2022/08/16 09:09:11;;;;;;;;;;;;;;;28.60;100.00;149901.34;5092974;28;19960;-81
2022/08/16 09:11:37;;;;;;;;;;;;;;;28.91;100.00;149978.63;5092634;28;20406;-81
2022/08/16 09:14:03;;;;;;;;;;;;;;;28.75;100.00;149937.44;5091501;28;19916;-80
2022/08/16 09:16:28;;;;;;;;;;;;;;;28.98;100.00;149995.41;5093031;28;19978;-80
2022/08/16 09:18:54;;;;;;;;;;;;;;;28.94;100.00;149986.34;5091164;28;19916;-77
2022/08/16 09:21:19;;;;;;;;;;;;;;;29.00;100.00;150001.81;5088867;28;20473;-77
2022/08/16 09:23:46;;;;;;;;;;;;;;;29.07;100.00;150017.28;5091057;28;19916;-76
2022/08/16 09:26:14;;;;;;;;;;;;;;;28.93;100.00;149983.81;5092092;28;19939;-77
2022/08/16 09:28:40;;;;;;;;;;;;;;;28.96;100.00;149991.53;5091241;28;19912;-77
2022/08/16 09:31:06;;;;;;;;;;;;;;;28.16;100.00;149789.31;5089985;28;19916;-76
2022/08/16 09:33:31;;;;;;;;;;;;;;;28.20;100.00;149800.91;5090461;28;20383;-77
2022/08/16 09:35:56;;;;;;;;;;;;;;;28.72;100.00;149929.72;5089143;28;19926;-77
2022/08/16 09:38:23;;;;;;;;;;;;;;;28.94;100.00;149986.34;5090439;28;20376;-75
2022/08/16 09:40:48;;;;;;;;;;;;;;;28.85;100.00;149961.91;5094509;28;19916;-76
2022/08/16 09:43:16;;;;;;;;;;;;;;;28.97;100.00;149994.09;5093874;28;19977;-76
2022/08/16 09:45:42;;;;;;;;;;;;;;;28.79;100.00;149949.03;5094495;28;20280;-79
2022/08/16 09:48:08;;;;;;;;;;;;;;;28.31;100.00;149827.94;5093573;28;19927;-76
2022/08/16 09:50:34;;;;;;;;;;;;;;;28.26;100.00;149816.34;5093197;28;19916;-75
2022/08/16 09:53:01;;;;;;;;;;;;;;;28.05;100.00;149762.28;5093688;28;19919;-76
2022/08/16 09:55:27;;;;;;;;;;;;;;;28.08;100.00;149770.00;5094230;28;20467;-79
2022/08/16 09:57:52;;;;;;;;;;;;;;;27.69;100.00;149672.13;5093698;28;19999;-76
2022/08/16 10:00:17;;;;;;;;;;;;;;;27.46;100.00;149614.19;5093721;28;19916;-76
2022/08/16 10:02:43;;;;;;;;;;;;;;;27.74;100.00;149686.25;5093897;28;19923;-76
2022/08/16 10:05:10;;;;;;;;;;;;;;;28.14;100.00;149785.44;5093105;28;19971;-76
2022/08/16 10:07:35;;;;;;;;;;;;;;;28.11;100.00;149779.00;5094016;28;19916;-76
2022/08/16 10:10:00;;;;;;;;;;;;;;;28.65;100.00;149914.25;5093090;28;19923;-76
2022/08/16 10:15:13;;;;;;;;;;;;;;;28.26;100.00;149816.34;5094805;28;20065;-76
2022/08/16 10:17:41;;;;;;;;;;;;;;;28.37;100.00;149843.38;5093195;28;20573;-77
2022/08/16 10:20:09;;;;;;;;;;;;;;;28.58;100.00;149896.22;5092826;28;19927;-76
2022/08/16 10:22:35;;;;;;;;;;;;;;;28.39;100.00;149848.53;5093613;28;20563;-77
2022/08/16 10:25:01;;;;;;;;;;;;;;;28.37;100.00;149843.38;5091956;28;19916;-77
2022/08/16 10:27:26;;;;;;;;;;;;;;;28.35;100.00;149838.22;5092868;28;19924;-75
2022/08/16 10:29:51;;;;;;;;;;;;;;;28.53;100.00;149882.03;5093750;28;19923;-75
2022/08/16 10:32:17;;;;;;;;;;;;;;;28.55;100.00;149888.44;5092881;28;20276;-77
2022/08/16 10:34:42;;;;;;;;;;;;;;;28.63;100.00;149907.81;5093917;28;20006;-75
2022/08/16 10:37:07;;;;;;;;;;;;;;;28.68;100.00;149919.41;5092972;28;19976;-76
2022/08/16 10:39:33;;;;;;;;;;;;;;;28.39;100.00;149847.25;5093015;28;19916;-77
2022/08/16 10:41:58;;;;;;;;;;;;;;;28.22;100.00;149804.75;5093115;28;19916;-78
2022/08/16 10:44:24;;;;;;;;;;;;;;;28.09;100.00;149772.53;5094912;28;19916;-78
2022/08/16 10:46:49;;;;;;;;;;;;;;;27.64;100.00;149660.53;5091888;28;20016;-77
2022/08/16 10:49:15;;;;;;;;;;;;;;;27.72;100.00;149679.84;5092224;28;19956;-77
2022/08/16 10:51:40;;;;;;;;;;;;;;;27.51;100.00;149627.06;5093115;28;19916;-77
2022/08/16 10:54:08;;;;;;;;;;;;;;;27.26;100.00;149565.22;5093316;28;20364;-78
2022/08/16 10:56:34;;;;;;;;;;;;;;;27.38;100.00;149594.88;5094253;28;19916;-76
2022/08/16 10:58:59;;;;;;;;;;;;;;;27.44;100.00;149609.00;5093068;28;19920;-80
2022/08/16 11:01:25;;;;;;;;;;;;;;;27.54;100.00;149636.03;5092681;28;19916;-76
2022/08/16 11:03:52;;;;;;;;;;;;;;;28.23;100.00;149808.63;5093342;28;20010;-78
2022/08/16 11:06:18;;;;;;;;;;;;;;;28.33;100.00;149833.06;5093164;28;20319;-78
2022/08/16 11:08:43;;;;;;;;;;;;;;;28.32;100.00;149830.47;5094051;28;19923;-77
2022/08/16 11:11:10;;;;;;;;;;;;;;;28.56;100.00;149891.03;5092876;28;19916;-77
2022/08/16 11:13:38;;;;;;;;;;;;;;;28.82;100.00;149955.44;5093334;28;19916;-79
2022/08/16 11:16:05;;;;;;;;;;;;;;;28.60;100.00;149901.34;5092760;28;19916;-77
2022/08/16 11:18:31;;;;;;;;;;;;;;;28.70;100.00;149925.84;5095686;28;19924;-78
2022/08/16 11:20:57;;;;;;;;;;;;;;;28.84;100.00;149960.63;5095661;28;19932;-78
2022/08/16 11:23:25;;;;;;;;;;;;;;;28.93;100.00;149982.50;5093127;28;20011;-79
2022/08/16 11:25:50;;;;;;;;;;;;;;;28.86;100.00;149964.50;5093236;28;19916;-77
2022/08/16 11:28:16;;;;;;;;;;;;;;;28.87;100.00;149968.34;5092184;28;19916;-78
2022/08/16 11:30:42;;;;;;;;;;;;;;;28.83;100.00;149958.03;5092793;28;19939;-77
2022/08/16 11:33:08;;;;;;;;;;;;;;;28.58;100.00;149896.22;5095149;28;19959;-78
2022/08/16 11:35:34;;;;;;;;;;;;;;;28.46;100.00;149865.25;5096352;28;19916;-77
2022/08/16 11:38:05;;;;;;;;;;;;;;;28.30;100.00;149826.63;5099538;28;19960;-77
2022/08/16 11:40:36;;;;;;;;;;;;;;;28.66;100.00;149915.53;5093350;28;19923;-79
2022/08/16 11:43:04;;;;;;;;;;;;;;;28.54;100.00;149885.88;5091734;28;19924;-81
2022/08/16 11:45:29;;;;;;;;;;;;;;;28.32;100.00;149830.47;5092486;28;19955;-80
2022/08/16 11:47:54;;;;;;;;;;;;;;;28.56;100.00;149889.75;5092968;28;20045;-77
2022/08/16 11:50:20;;;;;;;;;;;;;;;28.21;100.00;149802.16;5092116;28;19916;-80
2022/08/16 11:52:46;;;;;;;;;;;;;;;28.26;100.00;149816.34;5093837;28;19919;-78
2022/08/16 11:55:12;;;;;;;;;;;;;;;28.32;100.00;149829.22;5092575;28;19915;-78
2022/08/16 11:57:38;;;;;;;;;;;;;;;28.28;100.00;149820.22;5091408;28;20394;-80
2022/08/16 12:00:10;;;;;;;;;;;;;;;28.09;100.00;149773.84;5092055;28;19920;-81
2022/08/16 12:02:37;;;;;;;;;;;;;;;28.15;100.00;149786.72;5092030;28;19916;-80
2022/08/16 12:05:03;;;;;;;;;;;;;;;28.24;100.00;149809.91;5090677;28;20387;-77
2022/08/16 12:07:28;;;;;;;;;;;;;;;27.97;100.00;149741.63;5090818;28;19923;-77
2022/08/16 12:09:54;;;;;;;;;;;;;;;28.34;100.00;149834.34;5090746;28;19920;-79
2022/08/16 12:12:19;;;;;;;;;;;;;;;28.52;100.00;149880.72;5092119;28;19916;-76
2022/08/16 12:14:45;;;;;;;;;;;;;;;28.34;100.00;149834.34;5091782;28;19931;-76
2022/08/16 12:17:10;;;;;;;;;;;;;;;28.15;100.00;149788.00;5090968;28;19916;-76
2022/08/16 12:19:35;;;;;;;;;;;;;;;27.91;100.00;149728.72;5091364;28;20226;-77
2022/08/16 12:22:01;;;;;;;;;;;;;;;28.13;100.00;149782.84;5092162;28;19916;-78
2022/08/16 12:24:28;;;;;;;;;;;;;;;27.98;100.00;149745.50;5073762;28;19924;-77
2022/08/16 12:26:53;;;;;;;;;;;;;;;28.02;100.00;149755.81;5091743;28;19916;-77